Time;durP1;ratioP1;P1;durP2;ratioP2;P2;SDS_P1;SDS_P2;PMS_P1;PMS_P2;Temp;Humidity;BMP_temperature;BMP_pressure;BME280_temperature;BME280_humidity;BME280_pressure;Samples;Min_cycle;Max_cycle;Signal;HPM_P1;HPM_P2
2021/06/20 00:01:29;;;;;;;59.00;2.70;;;24.20;1.00;;;;;;5133827;27;20483;-69
2021/06/20 00:03:57;;;;;;;58.10;2.40;;;24.20;1.00;;;;;;5133882;27;20440;-68
2021/06/20 00:06:30;;;;;;;59.27;2.80;;;24.20;1.00;;;;;;5133364;27;20949;-69
2021/06/20 00:08:58;;;;;;;58.57;3.00;;;24.20;1.00;;;;;;5134082;27;20475;-69
2021/06/20 00:11:26;;;;;;;58.40;2.63;;;24.20;1.00;;;;;;5133518;27;20463;-69
2021/06/20 00:13:53;;;;;;;58.70;3.03;;;24.30;1.00;;;;;;5133533;27;20973;-68
2021/06/20 00:16:20;;;;;;;59.00;2.70;;;24.30;1.00;;;;;;5133446;27;20480;-69
2021/06/20 00:18:47;;;;;;;58.07;2.47;;;24.30;1.00;;;;;;5133187;27;20484;-68
2021/06/20 00:21:16;;;;;;;58.77;3.13;;;24.30;1.00;;;;;;5133717;27;20532;-68
2021/06/20 00:23:42;;;;;;;58.70;3.00;;;24.30;1.00;;;;;;5133483;27;20538;-68
2021/06/20 00:26:09;;;;;;;58.90;3.37;;;24.30;1.00;;;;;;5133427;27;20475;-68
2021/06/20 00:28:36;;;;;;;60.80;3.60;;;24.30;1.00;;;;;;5133287;27;20552;-68
2021/06/20 00:31:03;;;;;;;58.30;2.30;;;24.30;1.00;;;;;;5133356;27;20949;-68
2021/06/20 00:33:30;;;;;;;58.20;2.40;;;24.30;1.00;;;;;;5133040;27;20535;-68
2021/06/20 00:35:58;;;;;;;59.10;3.70;;;24.40;1.00;;;;;;5133244;27;20512;-68
2021/06/20 00:38:26;;;;;;;58.43;2.70;;;24.40;1.00;;;;;;5132872;27;20460;-69
2021/06/20 00:40:53;;;;;;;58.37;2.50;;;24.40;1.00;;;;;;5132831;27;20907;-69
2021/06/20 00:43:20;;;;;;;58.37;2.60;;;24.40;1.00;;;;;;5133039;27;20478;-68
2021/06/20 00:45:47;;;;;;;58.40;2.73;;;24.50;1.00;;;;;;5132766;27;20527;-68
2021/06/20 00:48:14;;;;;;;58.83;3.20;;;24.50;1.00;;;;;;5132915;27;20526;-68
2021/06/20 00:50:41;;;;;;;59.10;3.53;;;24.50;1.00;;;;;;5133261;27;20878;-68
2021/06/20 00:53:09;;;;;;;58.70;3.47;;;24.50;1.00;;;;;;5133050;27;20444;-68
2021/06/20 00:55:38;;;;;;;58.60;2.90;;;24.50;1.00;;;;;;5132893;27;20568;-68
2021/06/20 00:58:07;;;;;;;58.27;2.63;;;24.50;1.00;;;;;;5132526;27;20452;-68
2021/06/20 01:00:36;;;;;;;58.90;3.10;;;24.50;1.00;;;;;;5132694;27;20445;-68
2021/06/20 01:03:03;;;;;;;58.27;2.40;;;24.50;1.00;;;;;;5132955;27;20500;-69
2021/06/20 01:05:30;;;;;;;58.50;3.13;;;24.50;1.00;;;;;;5132906;27;20809;-69
2021/06/20 01:07:58;;;;;;;58.40;2.83;;;24.50;1.00;;;;;;5132359;27;20455;-69
2021/06/20 01:10:27;;;;;;;58.43;3.00;;;24.50;1.00;;;;;;5132541;27;20579;-69
2021/06/20 01:12:56;;;;;;;58.30;2.50;;;24.40;1.00;;;;;;5132382;27;20447;-69
2021/06/20 01:15:23;;;;;;;58.37;2.90;;;24.40;1.00;;;;;;5132742;28;21037;-69
2021/06/20 01:17:50;;;;;;;58.80;3.50;;;24.40;1.00;;;;;;5132396;28;20544;-69
2021/06/20 01:20:20;;;;;;;58.37;2.60;;;24.30;1.00;;;;;;5132644;28;20475;-69
2021/06/20 01:22:49;;;;;;;58.47;2.67;;;24.30;1.00;;;;;;5132411;28;20932;-66
2021/06/20 01:25:18;;;;;;;58.50;2.80;;;24.30;1.00;;;;;;5132507;28;20450;-67
2021/06/20 01:27:49;;;;;;;58.20;2.60;;;24.20;1.00;;;;;;5132757;27;20877;-67
2021/06/20 01:30:21;;;;;;;58.37;2.60;;;24.20;1.00;;;;;;5132607;28;20475;-67
2021/06/20 01:32:48;;;;;;;59.30;3.23;;;24.10;1.00;;;;;;5132587;28;20470;-67
2021/06/20 01:35:18;;;;;;;58.80;2.87;;;24.10;1.00;;;;;;5132399;28;20929;-67
2021/06/20 01:37:46;;;;;;;58.13;2.40;;;24.00;1.00;;;;;;5132128;28;20491;-67
2021/06/20 01:40:17;;;;;;;58.20;2.47;;;24.00;1.00;;;;;;5132849;28;20547;-68
2021/06/20 01:42:44;;;;;;;58.30;2.80;;;24.00;1.00;;;;;;5132612;27;20546;-68
2021/06/20 01:45:13;;;;;;;58.40;2.63;;;24.00;1.00;;;;;;5132244;28;20468;-68
2021/06/20 01:47:43;;;;;;;59.57;3.90;;;24.10;1.00;;;;;;5132181;27;21015;-67
2021/06/20 01:50:13;;;;;;;58.97;2.83;;;24.30;1.00;;;;;;5132836;28;20503;-67
2021/06/20 01:52:41;;;;;;;58.60;2.60;;;24.40;1.00;;;;;;5133149;27;20455;-68
2021/06/20 01:55:09;;;;;;;59.37;3.70;;;24.50;1.00;;;;;;5136465;27;20867;-68
2021/06/20 01:57:41;;;;;;;58.17;2.87;;;24.70;1.00;;;;;;5136132;27;20894;-68
2021/06/20 02:00:10;;;;;;;58.13;3.00;;;24.80;1.00;;;;;;5136400;27;20618;-68
2021/06/20 02:02:37;;;;;;;58.20;2.40;;;24.90;1.00;;;;;;5136123;27;20538;-68
2021/06/20 02:05:05;;;;;;;58.50;2.80;;;25.10;1.00;;;;;;5135936;27;20467;-67
2021/06/20 02:07:32;;;;;;;58.57;2.97;;;25.10;1.00;;;;;;5136004;27;20523;-68
2021/06/20 02:09:59;;;;;;;58.13;2.40;;;25.20;1.00;;;;;;5136160;27;20537;-68
2021/06/20 02:12:27;;;;;;;58.40;2.60;;;25.30;1.00;;;;;;5135958;27;20444;-68
2021/06/20 02:14:55;;;;;;;58.17;2.37;;;25.30;1.00;;;;;;5135930;27;20864;-68
2021/06/20 02:17:28;;;;;;;59.53;2.87;;;25.30;1.00;;;;;;5135525;27;21027;-68
2021/06/20 02:19:57;;;;;;;57.93;2.40;;;25.40;1.00;;;;;;5135962;27;20503;-68
2021/06/20 02:22:25;;;;;;;58.23;2.43;;;25.50;1.00;;;;;;5135760;27;20859;-67
2021/06/20 02:24:52;;;;;;;59.27;3.67;;;25.50;1.00;;;;;;5135811;27;20484;-68
2021/06/20 02:27:19;;;;;;;58.70;2.60;;;25.50;1.00;;;;;;5135414;27;20493;-68
2021/06/20 02:29:49;;;;;;;57.87;2.00;;;25.50;1.00;;;;;;5135512;27;20555;-68
2021/06/20 02:32:18;;;;;;;59.13;3.77;;;25.60;1.00;;;;;;5135422;27;20528;-68
2021/06/20 02:34:46;;;;;;;58.03;2.20;;;25.60;1.00;;;;;;5135363;27;20481;-68
2021/06/20 02:37:14;;;;;;;57.67;2.10;;;25.60;1.00;;;;;;5135405;27;20445;-68
2021/06/20 02:39:41;;;;;;;58.07;2.40;;;25.70;1.00;;;;;;5135303;27;20545;-68
2021/06/20 02:42:09;;;;;;;57.77;2.10;;;25.80;1.00;;;;;;5135429;27;20539;-68
2021/06/20 02:44:36;;;;;;;57.90;2.10;;;25.80;1.00;;;;;;5135138;27;20938;-68
2021/06/20 02:47:05;;;;;;;58.20;2.27;;;25.80;1.00;;;;;;5135336;27;20463;-68
2021/06/20 02:49:35;;;;;;;58.50;3.13;;;25.80;1.00;;;;;;5135319;27;20470;-68
2021/06/20 02:52:02;;;;;;;58.80;3.23;;;25.80;1.00;;;;;;5135083;27;20531;-68
2021/06/20 02:54:29;;;;;;;59.17;4.10;;;25.70;1.00;;;;;;5135272;27;20477;-68
2021/06/20 02:56:57;;;;;;;58.07;2.47;;;25.60;1.00;;;;;;5134769;27;20586;-68
2021/06/20 02:59:24;;;;;;;58.60;3.67;;;25.60;1.00;;;;;;5134893;27;20537;-68
2021/06/20 03:01:50;;;;;;;58.40;2.80;;;25.50;1.00;;;;;;5135129;27;20878;-68
2021/06/20 03:04:17;;;;;;;57.87;2.33;;;25.50;1.00;;;;;;5134648;27;20980;-68
2021/06/20 03:06:46;;;;;;;58.00;2.30;;;25.50;1.00;;;;;;5134987;27;20553;-68
2021/06/20 03:09:13;;;;;;;58.53;3.10;;;25.40;1.00;;;;;;5134607;27;20848;-68
2021/06/20 03:11:42;;;;;;;59.17;2.70;;;25.30;1.00;;;;;;5134647;27;20447;-68
2021/06/20 03:14:09;;;;;;;58.10;2.37;;;25.30;1.00;;;;;;5134998;27;20452;-68
2021/06/20 03:16:36;;;;;;;58.27;2.30;;;25.30;1.00;;;;;;5134553;27;20524;-68
2021/06/20 03:19:04;;;;;;;58.17;2.40;;;25.20;1.00;;;;;;5134528;27;20547;-68
2021/06/20 03:21:31;;;;;;;58.80;3.60;;;25.10;1.00;;;;;;5134800;27;20452;-68
2021/06/20 03:23:59;;;;;;;58.07;2.27;;;25.00;1.00;;;;;;5134531;27;20565;-68
2021/06/20 03:26:26;;;;;;;58.13;2.50;;;25.00;1.00;;;;;;5134472;27;20868;-68
2021/06/20 03:28:53;;;;;;;58.17;2.60;;;24.90;1.00;;;;;;5134607;27;20468;-68
2021/06/20 03:31:20;;;;;;;58.07;2.40;;;24.80;1.00;;;;;;5134352;27;20454;-68
2021/06/20 03:33:47;;;;;;;58.37;2.83;;;24.80;1.00;;;;;;5134458;27;20485;-68
2021/06/20 03:36:14;;;;;;;58.47;2.60;;;24.70;1.00;;;;;;5134145;27;20480;-68
2021/06/20 03:38:42;;;;;;;58.53;3.03;;;24.60;1.00;;;;;;5134617;27;20817;-67
2021/06/20 03:41:11;;;;;;;58.50;2.83;;;24.60;1.00;;;;;;5134458;27;20534;-68
2021/06/20 03:43:38;;;;;;;58.47;3.10;;;24.50;1.00;;;;;;5134373;27;20444;-68
2021/06/20 03:46:05;;;;;;;58.40;2.40;;;24.50;1.00;;;;;;5134048;27;20532;-68
2021/06/20 03:48:32;;;;;;;59.13;3.53;;;24.40;1.00;;;;;;5134031;27;20554;-68
2021/06/20 03:50:59;;;;;;;58.30;2.77;;;24.40;1.00;;;;;;5134691;27;20798;-68
2021/06/20 03:53:26;;;;;;;58.60;2.80;;;24.30;1.00;;;;;;5133820;27;20874;-68
2021/06/20 03:55:52;;;;;;;58.23;2.70;;;24.30;1.00;;;;;;5133981;27;21063;-68
2021/06/20 03:58:20;;;;;;;58.27;2.50;;;24.20;1.00;;;;;;5133711;27;20451;-68
2021/06/20 04:00:47;;;;;;;59.23;3.43;;;24.10;1.00;;;;;;5133905;27;20491;-68
2021/06/20 04:03:14;;;;;;;58.07;2.70;;;24.00;1.00;;;;;;5133751;27;20490;-68
2021/06/20 04:05:41;;;;;;;57.97;2.30;;;24.00;1.00;;;;;;5133780;27;20890;-68
2021/06/20 04:08:08;;;;;;;59.50;3.60;;;23.90;1.00;;;;;;5133332;27;20542;-68
2021/06/20 04:10:35;;;;;;;63.80;5.07;;;23.90;1.00;;;;;;5133553;27;20502;-68
2021/06/20 04:13:02;;;;;;;61.03;5.67;;;23.90;1.00;;;;;;5133797;27;20449;-68
2021/06/20 04:15:30;;;;;;;60.10;2.80;;;23.80;1.00;;;;;;5132749;27;21045;-68
2021/06/20 04:17:57;;;;;;;58.70;2.73;;;23.80;1.00;;;;;;5133339;27;20543;-68
2021/06/20 04:20:24;;;;;;;58.70;3.27;;;23.80;1.00;;;;;;5133258;27;20550;-68
2021/06/20 04:22:51;;;;;;;58.20;2.50;;;23.80;1.00;;;;;;5133579;27;20486;-68
2021/06/20 04:25:18;;;;;;;58.60;2.93;;;23.90;1.00;;;;;;5133582;27;20475;-68
2021/06/20 04:27:47;;;;;;;58.47;2.80;;;23.90;1.00;;;;;;5133090;27;20488;-68
2021/06/20 04:30:15;;;;;;;58.27;2.37;;;23.90;1.00;;;;;;5133304;27;20990;-68
2021/06/20 04:32:45;;;;;;;58.30;2.47;;;23.90;1.00;;;;;;5133214;27;20868;-68
2021/06/20 04:35:13;;;;;;;58.17;2.30;;;23.90;1.00;;;;;;5133156;27;20433;-68
2021/06/20 04:37:41;;;;;;;59.03;3.13;;;23.90;1.00;;;;;;5133099;27;20539;-68
2021/06/20 04:40:11;;;;;;;58.90;2.90;;;23.90;1.00;;;;;;5133253;27;20544;-69
2021/06/20 04:42:39;;;;;;;58.27;2.40;;;24.00;1.00;;;;;;5133203;27;20452;-68
2021/06/20 04:45:08;;;;;;;58.30;2.60;;;24.00;1.00;;;;;;5133371;27;20455;-68
2021/06/20 04:47:35;;;;;;;58.30;2.30;;;24.00;1.00;;;;;;5132502;27;20479;-68
2021/06/20 04:50:05;;;;;;;57.73;2.20;;;24.00;1.00;;;;;;5133147;27;20899;-68
2021/06/20 04:52:31;;;;;;;58.70;2.90;;;24.00;1.00;;;;;;5132977;27;20840;-68
2021/06/20 04:54:58;;;;;;;58.50;2.83;;;24.00;1.00;;;;;;5132978;27;20457;-68
2021/06/20 04:57:27;;;;;;;58.27;2.67;;;23.90;1.00;;;;;;5132653;27;20508;-68
2021/06/20 04:59:56;;;;;;;58.47;2.70;;;23.90;1.00;;;;;;5132691;27;20490;-68
2021/06/20 05:02:24;;;;;;;58.27;2.20;;;23.90;1.00;;;;;;5132893;27;20827;-68
2021/06/20 05:04:51;;;;;;;58.13;2.30;;;23.90;1.00;;;;;;5132696;27;20543;-68
2021/06/20 05:07:20;;;;;;;58.80;3.40;;;24.00;1.00;;;;;;5132650;27;20454;-68
2021/06/20 05:09:48;;;;;;;58.90;3.40;;;24.00;1.00;;;;;;5132604;27;20483;-68
2021/06/20 05:12:15;;;;;;;58.70;2.60;;;24.10;1.00;;;;;;5132828;27;20533;-68
2021/06/20 05:14:43;;;;;;;58.17;2.37;;;24.20;1.00;;;;;;5132516;28;20859;-68
2021/06/20 05:17:10;;;;;;;58.40;2.40;;;24.30;1.00;;;;;;5132682;28;20519;-66
2021/06/20 05:19:37;;;;;;;58.33;2.60;;;24.30;1.00;;;;;;5132532;28;20476;-66
2021/06/20 05:22:04;;;;;;;60.87;2.80;;;24.30;1.00;;;;;;5132614;27;20558;-66
2021/06/20 05:24:33;;;;;;;58.03;2.40;;;24.30;1.00;;;;;;5132583;28;20448;-66
2021/06/20 05:27:00;;;;;;;58.43;2.50;;;24.40;1.00;;;;;;5133925;27;20479;-67
2021/06/20 05:29:27;;;;;;;58.50;2.90;;;24.30;1.00;;;;;;5136954;27;20469;-67
2021/06/20 05:31:54;;;;;;;58.57;3.70;;;24.30;1.00;;;;;;5136677;27;20451;-67
2021/06/20 05:34:20;;;;;;;59.67;3.17;;;24.20;1.00;;;;;;5136639;27;20443;-67
2021/06/20 05:36:50;;;;;;;58.50;2.80;;;24.30;1.00;;;;;;5136364;27;20472;-67
2021/06/20 05:39:17;;;;;;;58.30;2.60;;;24.30;1.00;;;;;;5136608;27;20478;-67
2021/06/20 05:41:45;;;;;;;58.40;2.80;;;24.30;1.00;;;;;;5136408;27;20486;-67
2021/06/20 05:44:12;;;;;;;58.07;2.20;;;24.30;1.00;;;;;;5136775;27;20471;-67
2021/06/20 05:46:39;;;;;;;59.57;3.17;;;24.30;1.00;;;;;;5136332;27;20867;-67
2021/06/20 05:49:06;;;;;;;59.17;2.30;;;24.30;1.00;;;;;;5136329;27;20991;-67
2021/06/20 05:51:32;;;;;;;58.07;2.30;;;24.30;1.00;;;;;;5136549;27;20490;-67
2021/06/20 05:53:59;;;;;;;59.30;3.17;;;24.40;1.00;;;;;;5136421;27;20451;-67
2021/06/20 05:56:26;;;;;;;58.50;2.73;;;24.40;1.00;;;;;;5135901;27;20917;-67
2021/06/20 05:58:54;;;;;;;58.80;3.90;;;24.40;1.00;;;;;;5136085;27;21042;-67
2021/06/20 06:01:21;;;;;;;59.10;3.30;;;24.50;1.00;;;;;;5136245;27;20985;-67
2021/06/20 06:03:48;;;;;;;58.97;3.87;;;24.60;1.00;;;;;;5136332;27;20713;-67
2021/06/20 06:06:15;;;;;;;57.83;2.30;;;24.70;1.00;;;;;;5135918;27;20445;-67
2021/06/20 06:08:41;;;;;;;57.83;2.30;;;24.80;1.00;;;;;;5135860;27;20900;-67
2021/06/20 06:11:08;;;;;;;58.20;2.50;;;24.90;1.00;;;;;;5135839;27;20568;-67
2021/06/20 06:13:35;;;;;;;57.97;2.20;;;25.00;1.00;;;;;;5135670;27;20451;-67
2021/06/20 06:16:04;;;;;;;58.43;3.47;;;25.10;1.00;;;;;;5135214;27;20468;-67
2021/06/20 06:18:31;;;;;;;58.17;3.00;;;25.20;1.00;;;;;;5135857;27;20460;-67
2021/06/20 06:20:57;;;;;;;58.10;2.20;;;25.40;1.00;;;;;;5135807;27;20484;-67
2021/06/20 06:23:24;;;;;;;59.87;5.10;;;25.60;1.00;;;;;;5135566;27;21050;-67
2021/06/20 06:25:51;;;;;;;59.10;2.60;;;25.70;1.00;;;;;;5135683;27;20940;-67
2021/06/20 06:28:18;;;;;;;58.50;3.20;;;26.20;1.00;;;;;;5135616;27;20445;-67
2021/06/20 06:30:45;;;;;;;57.93;2.30;;;25.90;1.00;;;;;;5135704;27;20501;-67
2021/06/20 06:33:13;;;;;;;58.17;2.30;;;26.10;1.00;;;;;;5135583;27;20493;-67
2021/06/20 06:35:40;;;;;;;58.07;2.33;;;26.20;1.00;;;;;;5135609;27;20484;-67
2021/06/20 06:38:07;;;;;;;60.50;3.00;;;26.20;1.00;;;;;;5134157;27;20625;-67
2021/06/20 06:40:35;;;;;;;58.00;2.30;;;26.30;1.00;;;;;;5135736;27;20541;-67
2021/06/20 06:43:02;;;;;;;58.70;2.93;;;26.30;1.00;;;;;;5135582;27;20453;-67
2021/06/20 06:45:29;;;;;;;57.93;2.10;;;26.40;1.00;;;;;;5135299;27;20952;-67
2021/06/20 06:47:56;;;;;;;58.30;2.60;;;26.40;1.00;;;;;;5135319;27;20473;-67
2021/06/20 06:50:24;;;;;;;58.07;2.43;;;26.50;1.00;;;;;;5134452;27;20554;-67
2021/06/20 06:52:51;;;;;;;57.57;2.00;;;26.50;1.00;;;;;;5135116;27;20872;-67
2021/06/20 06:55:18;;;;;;;57.77;1.93;;;26.50;1.00;;;;;;5134867;27;20484;-67
2021/06/20 06:57:45;;;;;;;57.77;2.20;;;26.60;1.00;;;;;;5134982;27;20517;-67
2021/06/20 07:00:13;;;;;;;58.07;2.30;;;26.60;1.00;;;;;;5135098;27;20537;-67
2021/06/20 07:02:41;;;;;;;58.10;2.73;;;26.50;1.00;;;;;;5135048;27;20530;-68
2021/06/20 07:05:09;;;;;;;61.07;4.00;;;26.60;1.00;;;;;;5134903;27;21004;-67
2021/06/20 07:07:37;;;;;;;58.30;2.30;;;26.60;1.00;;;;;;5135177;27;20474;-67
2021/06/20 07:10:05;;;;;;;57.87;2.10;;;26.60;1.00;;;;;;5134845;27;20512;-67
2021/06/20 07:12:33;;;;;;;59.70;4.00;;;26.60;1.00;;;;;;5134949;27;20438;-67
2021/06/20 07:15:03;;;;;;;57.90;2.30;;;26.50;1.00;;;;;;5134780;27;20951;-67
2021/06/20 07:17:30;;;;;;;58.07;3.00;;;26.50;1.00;;;;;;5134395;27;20533;-67
2021/06/20 07:19:56;;;;;;;57.90;2.43;;;26.40;1.00;;;;;;5134936;27;20894;-67
2021/06/20 07:22:23;;;;;;;57.97;2.23;;;26.30;1.00;;;;;;5134802;27;20541;-67
2021/06/20 07:24:52;;;;;;;57.93;2.20;;;26.20;1.00;;;;;;5134729;27;20455;-67
2021/06/20 07:27:19;;;;;;;58.93;2.73;;;26.20;1.00;;;;;;5134598;27;20443;-67
2021/06/20 07:29:47;;;;;;;57.83;2.50;;;26.30;1.00;;;;;;5134503;27;20553;-67
2021/06/20 07:32:15;;;;;;;57.87;1.90;;;26.30;1.00;;;;;;5134308;27;21202;-67
2021/06/20 07:34:41;;;;;;;58.30;2.50;;;26.40;1.00;;;;;;5134826;27;20448;-67
2021/06/20 07:37:08;;;;;;;57.93;2.00;;;26.60;1.00;;;;;;5134513;27;20493;-67
2021/06/20 07:39:35;;;;;;;58.50;2.67;;;26.70;1.00;;;;;;5134260;27;20989;-67
2021/06/20 07:42:04;;;;;;;58.07;2.47;;;26.80;1.00;;;;;;5134343;27;20886;-67
2021/06/20 07:44:31;;;;;;;58.20;2.47;;;26.80;1.00;;;;;;5134149;27;20823;-67
2021/06/20 07:46:58;;;;;;;58.20;3.13;;;26.80;1.00;;;;;;5134450;27;20809;-67
2021/06/20 07:49:24;;;;;;;58.00;2.50;;;26.80;1.00;;;;;;5134105;27;20462;-67
2021/06/20 07:51:51;;;;;;;58.33;2.60;;;26.80;1.00;;;;;;5133342;27;20450;-67
2021/06/20 07:54:18;;;;;;;57.97;2.00;;;26.80;1.00;;;;;;5134078;27;20530;-67
2021/06/20 07:56:45;;;;;;;57.80;2.03;;;26.70;1.00;;;;;;5133720;27;21081;-67
2021/06/20 07:59:13;;;;;;;58.70;3.17;;;26.70;1.00;;;;;;5133708;27;20499;-67
2021/06/20 08:01:40;;;;;;;57.97;2.23;;;26.60;1.00;;;;;;5133806;27;20524;-67
2021/06/20 08:04:07;;;;;;;59.00;3.33;;;26.60;1.00;;;;;;5133825;27;20506;-67
2021/06/20 08:06:34;;;;;;;61.03;4.63;;;26.40;1.00;;;;;;5133703;27;20477;-67
2021/06/20 08:09:01;;;;;;;57.73;2.10;;;26.30;1.00;;;;;;5133648;27;20900;-67
2021/06/20 08:11:28;;;;;;;57.57;1.80;;;26.20;1.00;;;;;;5133589;27;21026;-67
2021/06/20 08:13:56;;;;;;;60.00;3.33;;;26.10;1.00;;;;;;5133555;27;20446;-66
2021/06/20 08:16:25;;;;;;;57.97;2.10;;;26.10;1.00;;;;;;5133326;27;20936;-67
2021/06/20 08:18:52;;;;;;;57.73;2.00;;;25.90;1.00;;;;;;5133500;27;20552;-67
2021/06/20 08:21:20;;;;;;;58.50;2.87;;;25.90;1.00;;;;;;5133521;27;20442;-67
2021/06/20 08:23:46;;;;;;;58.17;2.40;;;25.90;1.00;;;;;;5133468;27;20950;-67
2021/06/20 08:26:13;;;;;;;58.03;2.30;;;25.90;1.00;;;;;;5133182;27;20893;-67
2021/06/20 08:28:40;;;;;;;57.77;2.00;;;25.90;1.00;;;;;;5133314;27;20542;-67
2021/06/20 08:31:07;;;;;;;58.40;2.80;;;26.00;1.00;;;;;;5133227;27;20446;-67
2021/06/20 08:33:35;;;;;;;57.83;2.00;;;26.10;1.00;;;;;;5133472;27;20842;-67
2021/06/20 08:36:03;;;;;;;57.57;2.00;;;26.30;1.00;;;;;;5133161;27;20449;-67
2021/06/20 08:38:30;;;;;;;57.90;2.23;;;26.50;1.00;;;;;;5133038;27;20559;-67
2021/06/20 08:40:57;;;;;;;57.43;1.80;;;26.60;1.00;;;;;;5133008;27;20910;-67
2021/06/20 08:43:25;;;;;;;58.00;2.83;;;26.60;1.00;;;;;;5133351;27;20840;-67
2021/06/20 08:45:52;;;;;;;57.97;2.03;;;26.70;1.00;;;;;;5133066;27;20993;-67
2021/06/20 08:48:20;;;;;;;57.87;2.20;;;26.90;1.00;;;;;;5132900;27;20442;-68
2021/06/20 08:50:49;;;;;;;58.30;2.40;;;26.70;1.00;;;;;;5133156;27;20888;-67
2021/06/20 08:53:18;;;;;;;57.87;2.10;;;26.70;1.00;;;;;;5132717;27;20447;-67
2021/06/20 08:55:45;;;;;;;57.77;2.20;;;26.90;1.00;;;;;;5132889;27;20538;-67
2021/06/20 08:58:19;;;;;;;57.80;2.10;;;27.20;1.00;;;;;;5132727;27;21060;-67
2021/06/20 09:00:46;;;;;;;57.80;1.90;;;27.10;1.00;;;;;;5133033;27;20441;-67
2021/06/20 09:03:13;;;;;;;58.73;3.80;;;27.20;1.00;;;;;;5133025;27;20447;-67
2021/06/20 09:05:40;;;;;;;57.87;2.00;;;27.40;1.00;;;;;;5132969;27;20462;-67
2021/06/20 09:08:16;;;;;;;57.73;2.00;;;27.50;1.00;;;;;;5132884;27;20476;-67
2021/06/20 09:10:43;;;;;;;58.30;2.30;;;27.50;1.00;;;;;;5132843;27;20594;-67
2021/06/20 09:13:10;;;;;;;57.70;2.00;;;27.50;1.00;;;;;;5131448;27;20441;-67
2021/06/20 09:15:37;;;;;;;57.87;2.23;;;27.50;1.00;;;;;;5133143;27;20444;-67
2021/06/20 09:18:07;;;;;;;57.77;2.20;;;27.50;1.00;;;;;;5132446;28;20480;-67
2021/06/20 09:20:37;;;;;;;58.20;2.30;;;27.50;1.00;;;;;;5132672;27;20445;-67
2021/06/20 09:23:08;;;;;;;57.57;2.10;;;27.60;1.00;;;;;;5132729;28;20627;-67
2021/06/20 09:25:38;;;;;;;58.00;2.40;;;27.60;1.00;;;;;;5132913;28;20448;-67
2021/06/20 09:28:06;;;;;;;58.27;2.93;;;27.60;1.00;;;;;;5132318;28;20893;-67
2021/06/20 09:30:36;;;;;;;57.97;2.40;;;27.70;1.00;;;;;;5132621;28;20479;-67
2021/06/20 09:33:05;;;;;;;57.80;2.20;;;27.70;1.00;;;;;;5132309;28;20932;-67
2021/06/20 09:35:41;;;;;;;58.10;2.60;;;27.80;1.00;;;;;;5132731;28;20888;-67
2021/06/20 09:38:10;;;;;;;57.83;2.10;;;27.80;1.00;;;;;;5132291;28;20484;-67
2021/06/20 09:40:39;;;;;;;57.87;2.07;;;27.80;1.00;;;;;;5132554;28;20789;-67
2021/06/20 09:43:13;;;;;;;57.63;2.00;;;27.90;1.00;;;;;;5132492;28;20539;-67
2021/06/20 09:45:44;;;;;;;57.90;1.93;;;28.00;1.00;;;;;;5132635;28;20443;-67
2021/06/20 09:48:25;;;;;;;57.90;2.10;;;28.10;1.00;;;;;;5132367;28;20452;-67
2021/06/20 09:50:52;;;;;;;57.70;1.90;;;28.20;1.00;;;;;;5132552;28;20527;-67
2021/06/20 09:53:30;;;;;;;58.30;3.40;;;28.30;1.00;;;;;;5132507;28;20871;-68
2021/06/20 09:56:12;;;;;;;58.20;2.53;;;28.40;1.00;;;;;;5132202;28;20437;-68
2021/06/20 09:58:42;;;;;;;58.10;3.03;;;28.40;1.00;;;;;;5132201;28;20493;-68
2021/06/20 10:01:11;;;;;;;58.30;2.43;;;28.50;1.00;;;;;;5132535;28;20448;-68
2021/06/20 10:03:38;;;;;;;57.87;2.30;;;28.60;1.00;;;;;;5132457;28;20452;-67
2021/06/20 10:06:05;;;;;;;57.67;2.00;;;28.70;1.00;;;;;;5132077;28;20535;-67
2021/06/20 10:08:33;;;;;;;58.00;2.20;;;28.60;1.00;;;;;;5132306;27;20548;-68
2021/06/20 10:10:59;;;;;;;58.20;2.30;;;28.40;1.00;;;;;;5132190;28;20535;-67
2021/06/20 10:13:28;;;;;;;57.67;2.00;;;28.40;1.00;;;;;;5132968;27;20440;-67
2021/06/20 10:15:56;;;;;;;57.70;2.10;;;28.30;1.00;;;;;;5136057;27;20448;-68
2021/06/20 10:18:24;;;;;;;57.73;2.07;;;28.30;1.00;;;;;;5135692;27;20567;-68
2021/06/20 10:20:57;;;;;;;58.40;2.90;;;28.20;1.00;;;;;;5135746;27;20543;-67
2021/06/20 10:23:25;;;;;;;57.77;2.10;;;28.20;1.00;;;;;;5135866;27;20448;-67
2021/06/20 10:25:53;;;;;;;57.67;2.00;;;28.10;1.00;;;;;;5135838;27;20456;-67
2021/06/20 10:28:22;;;;;;;58.40;2.20;;;28.10;1.00;;;;;;5135719;27;20448;-67
2021/06/20 10:30:51;;;;;;;57.57;2.00;;;28.00;1.00;;;;;;5135853;27;20472;-68
2021/06/20 10:33:22;;;;;;;60.10;3.80;;;27.80;1.00;;;;;;5135409;27;21024;-67
2021/06/20 10:35:59;;;;;;;57.67;1.97;;;27.70;1.00;;;;;;5136060;27;20451;-67
2021/06/20 10:38:34;;;;;;;58.40;2.47;;;27.60;1.00;;;;;;5135462;27;20491;-67
2021/06/20 10:41:01;;;;;;;57.77;2.00;;;27.50;1.00;;;;;;5135399;27;20454;-67
2021/06/20 10:43:28;;;;;;;58.67;2.97;;;27.50;1.00;;;;;;5135398;27;20451;-67
2021/06/20 10:45:57;;;;;;;57.80;2.00;;;27.40;1.00;;;;;;5135227;27;20479;-67
2021/06/20 10:48:25;;;;;;;58.07;2.40;;;27.50;1.00;;;;;;5135380;27;20559;-67
2021/06/20 10:50:54;;;;;;;58.93;3.87;;;27.50;1.00;;;;;;5135593;27;20542;-67
2021/06/20 10:53:23;;;;;;;59.87;3.23;;;27.60;1.00;;;;;;5135220;27;20443;-67
2021/06/20 10:55:52;;;;;;;59.07;3.70;;;27.70;1.00;;;;;;5135166;27;20551;-67
2021/06/20 10:58:22;;;;;;;58.97;3.33;;;28.10;1.00;;;;;;5134871;27;20565;-67
2021/06/20 11:00:50;;;;;;;60.53;6.50;;;27.90;1.00;;;;;;5135127;27;20944;-67
2021/06/20 11:03:26;;;;;;;58.60;3.23;;;28.00;1.00;;;;;;5135032;27;20531;-67
2021/06/20 11:05:55;;;;;;;58.10;2.10;;;28.20;1.00;;;;;;5135131;27;20448;-67
2021/06/20 11:08:33;;;;;;;58.97;2.53;;;28.60;1.00;;;;;;5134947;27;20479;-67
2021/06/20 11:11:05;;;;;;;58.13;2.63;;;28.80;1.00;;;;;;5134963;27;20527;-67
2021/06/20 11:13:32;;;;;;;57.87;2.23;;;29.20;1.00;;;;;;5135109;27;20820;-67
2021/06/20 11:16:04;;;;;;;57.70;1.80;;;29.40;1.00;;;;;;5134859;27;20483;-67
2021/06/20 11:18:33;;;;;;;57.77;2.20;;;29.60;1.00;;;;;;5134725;27;20480;-67
2021/06/20 11:21:00;;;;;;;58.13;2.70;;;29.60;1.00;;;;;;5134746;27;20447;-67
2021/06/20 11:23:29;;;;;;;60.10;2.90;;;29.60;1.00;;;;;;5134519;27;20547;-67
2021/06/20 11:25:57;;;;;;;58.00;2.47;;;29.90;1.00;;;;;;5134387;27;20449;-66
2021/06/20 11:28:25;;;;;;;57.80;2.17;;;30.40;1.00;;;;;;5134656;27;20461;-67
2021/06/20 11:30:52;;;;;;;60.10;2.00;;;30.70;1.00;;;;;;5134764;27;20484;-67
2021/06/20 11:33:26;;;;;;;57.87;2.10;;;31.00;1.00;;;;;;5134649;27;20461;-67
2021/06/20 11:35:55;;;;;;;57.73;2.27;;;31.40;1.00;;;;;;5134250;27;20451;-67
2021/06/20 11:38:30;;;;;;;57.57;2.00;;;32.20;1.00;;;;;;5133974;27;20526;-67
2021/06/20 11:41:08;;;;;;;57.80;2.20;;;32.30;1.00;;;;;;5134502;27;20438;-67
2021/06/20 11:43:35;;;;;;;57.57;2.00;;;33.00;1.00;;;;;;5134466;27;20448;-67
2021/06/20 11:46:01;;;;;;;57.77;2.23;;;33.50;1.00;;;;;;5134154;27;20538;-67
2021/06/20 11:48:28;;;;;;;58.40;3.20;;;33.60;1.00;;;;;;5133972;27;20912;-67
2021/06/20 11:50:57;;;;;;;57.53;2.20;;;33.60;1.00;;;;;;5134054;27;20951;-68
2021/06/20 11:53:25;;;;;;;57.60;2.30;;;33.90;1.00;;;;;;5134355;27;20531;-68
2021/06/20 11:55:52;;;;;;;57.80;2.17;;;34.40;1.00;;;;;;5134119;27;20495;-68
2021/06/20 11:58:20;;;;;;;57.60;2.20;;;34.50;1.00;;;;;;5133709;27;20480;-67
2021/06/20 12:00:50;;;;;;;57.43;2.00;;;34.40;1.00;;;;;;5133872;27;20452;-67
2021/06/20 12:03:19;;;;;;;57.77;2.00;;;34.20;1.00;;;;;;5133778;27;20441;-67
2021/06/20 12:05:47;;;;;;;57.57;2.30;;;33.80;1.00;;;;;;5134048;27;20448;-67
2021/06/20 12:08:16;;;;;;;57.13;2.00;;;33.50;1.00;;;;;;5133745;27;20494;-68
2021/06/20 12:10:44;;;;;;;57.87;2.13;;;33.60;1.00;;;;;;5133951;27;20484;-68
2021/06/20 12:13:12;;;;;;;57.30;2.10;;;33.70;1.00;;;;;;5133588;27;21000;-68
2021/06/20 12:15:41;;;;;;;57.50;2.17;;;33.70;1.00;;;;;;5133609;27;20487;-68
2021/06/20 12:18:09;;;;;;;57.77;2.50;;;33.70;1.00;;;;;;5133247;27;20516;-67
2021/06/20 12:20:38;;;;;;;57.63;2.60;;;34.40;1.00;;;;;;5133756;27;20520;-68
2021/06/20 12:23:06;;;;;;;57.80;2.20;;;34.90;1.00;;;;;;5133482;27;20508;-68
2021/06/20 12:25:44;;;;;;;57.60;2.20;;;35.60;1.00;;;;;;5133597;27;20708;-68
2021/06/20 12:28:12;;;;;;;59.60;2.90;;;36.60;1.00;;;;;;5133613;27;20437;-68
2021/06/20 12:30:40;;;;;;;57.37;2.00;;;37.10;1.00;;;;;;5133725;27;20456;-68
2021/06/20 12:33:10;;;;;;;57.27;2.23;;;37.40;1.00;;;;;;5133215;27;20451;-68
2021/06/20 12:35:37;;;;;;;60.27;3.77;;;38.00;1.00;;;;;;5133578;27;20480;-68
2021/06/20 12:38:15;;;;;;;57.40;1.93;;;38.40;1.00;;;;;;5132518;27;20444;-68
2021/06/20 12:40:43;;;;;;;57.17;2.30;;;38.90;1.00;;;;;;5133502;27;20467;-68
2021/06/20 12:43:14;;;;;;;56.97;1.90;;;39.00;1.00;;;;;;5133402;27;20540;-68
2021/06/20 12:45:41;;;;;;;57.30;2.20;;;38.90;1.00;;;;;;5133336;27;20446;-68
2021/06/20 12:48:14;;;;;;;61.70;4.50;;;39.00;1.00;;;;;;5132986;27;20480;-68
2021/06/20 12:50:47;;;;;;;57.53;2.23;;;39.00;1.00;;;;;;5133089;27;20523;-68
2021/06/20 12:53:14;;;;;;;57.20;2.17;;;39.10;1.00;;;;;;5133198;27;20483;-68